sensor_id;sensor_type;location;lat;lon;timestamp;P1;durP1;ratioP1;P2;durP2;ratioP2
60336;SDS011;46978;50.288;28.624;2024-02-26T00:00:22;9.76;;;5.14;;
60336;SDS011;46978;50.288;28.624;2024-02-26T00:01:24;9.90;;;5.24;;
60336;SDS011;46978;50.288;28.624;2024-02-26T00:02:26;12.84;;;6.54;;
60336;SDS011;46978;50.288;28.624;2024-02-26T00:03:27;12.06;;;5.58;;
60336;SDS011;46978;50.288;28.624;2024-02-26T00:04:29;10.10;;;5.53;;
60336;SDS011;46978;50.288;28.624;2024-02-26T00:05:30;12.93;;;5.86;;
60336;SDS011;46978;50.288;28.624;2024-02-26T00:06:32;11.47;;;5.62;;
60336;SDS011;46978;50.288;28.624;2024-02-26T00:07:33;13.36;;;5.75;;
60336;SDS011;46978;50.288;28.624;2024-02-26T00:08:35;10.28;;;5.12;;
60336;SDS011;46978;50.288;28.624;2024-02-26T00:09:37;11.15;;;4.81;;
60336;SDS011;46978;50.288;28.624;2024-02-26T00:10:39;12.04;;;5.92;;
60336;SDS011;46978;50.288;28.624;2024-02-26T00:11:40;9.96;;;5.05;;
60336;SDS011;46978;50.288;28.624;2024-02-26T00:12:42;11.18;;;4.90;;
60336;SDS011;46978;50.288;28.624;2024-02-26T00:13:43;11.91;;;5.60;;
60336;SDS011;46978;50.288;28.624;2024-02-26T00:14:45;13.52;;;6.19;;
60336;SDS011;46978;50.288;28.624;2024-02-26T00:15:46;9.91;;;5.18;;
60336;SDS011;46978;50.288;28.624;2024-02-26T00:16:48;10.20;;;5.95;;
60336;SDS011;46978;50.288;28.624;2024-02-26T00:17:49;14.11;;;5.33;;
60336;SDS011;46978;50.288;28.624;2024-02-26T00:18:51;7.36;;;4.83;;
60336;SDS011;46978;50.288;28.624;2024-02-26T00:19:52;12.29;;;5.76;;
60336;SDS011;46978;50.288;28.624;2024-02-26T00:20:54;12.15;;;5.04;;
60336;SDS011;46978;50.288;28.624;2024-02-26T00:21:56;11.33;;;5.27;;
60336;SDS011;46978;50.288;28.624;2024-02-26T00:22:57;13.66;;;6.23;;
60336;SDS011;46978;50.288;28.624;2024-02-26T00:23:59;14.69;;;6.06;;
60336;SDS011;46978;50.288;28.624;2024-02-26T00:25:00;9.96;;;5.13;;
60336;SDS011;46978;50.288;28.624;2024-02-26T00:26:02;12.86;;;5.02;;
60336;SDS011;46978;50.288;28.624;2024-02-26T00:27:04;10.35;;;5.26;;
60336;SDS011;46978;50.288;28.624;2024-02-26T00:28:05;9.13;;;4.81;;
60336;SDS011;46978;50.288;28.624;2024-02-26T00:29:07;11.00;;;5.27;;
60336;SDS011;46978;50.288;28.624;2024-02-26T00:30:09;11.71;;;5.07;;
60336;SDS011;46978;50.288;28.624;2024-02-26T00:31:11;14.51;;;5.56;;
60336;SDS011;46978;50.288;28.624;2024-02-26T00:32:13;10.36;;;5.51;;
60336;SDS011;46978;50.288;28.624;2024-02-26T00:33:16;9.67;;;5.03;;
60336;SDS011;46978;50.288;28.624;2024-02-26T00:34:18;10.10;;;5.07;;
60336;SDS011;46978;50.288;28.624;2024-02-26T00:35:19;13.16;;;5.56;;
60336;SDS011;46978;50.288;28.624;2024-02-26T00:36:21;12.01;;;5.41;;
60336;SDS011;46978;50.288;28.624;2024-02-26T00:37:23;13.73;;;6.12;;
60336;SDS011;46978;50.288;28.624;2024-02-26T00:38:24;10.88;;;4.92;;
60336;SDS011;46978;50.288;28.624;2024-02-26T00:39:26;10.39;;;4.74;;
60336;SDS011;46978;50.288;28.624;2024-02-26T00:40:27;11.56;;;5.24;;
60336;SDS011;46978;50.288;28.624;2024-02-26T00:41:29;14.94;;;5.31;;
60336;SDS011;46978;50.288;28.624;2024-02-26T00:42:31;10.33;;;4.67;;
60336;SDS011;46978;50.288;28.624;2024-02-26T00:43:32;9.89;;;4.60;;
60336;SDS011;46978;50.288;28.624;2024-02-26T00:44:33;9.85;;;4.84;;
60336;SDS011;46978;50.288;28.624;2024-02-26T00:45:35;10.98;;;5.03;;
60336;SDS011;46978;50.288;28.624;2024-02-26T00:46:37;8.44;;;4.62;;
60336;SDS011;46978;50.288;28.624;2024-02-26T00:47:38;11.25;;;5.66;;
60336;SDS011;46978;50.288;28.624;2024-02-26T00:48:40;9.90;;;5.25;;
60336;SDS011;46978;50.288;28.624;2024-02-26T00:49:41;9.40;;;5.62;;
60336;SDS011;46978;50.288;28.624;2024-02-26T00:50:43;8.85;;;5.14;;
60336;SDS011;46978;50.288;28.624;2024-02-26T00:51:45;10.38;;;5.34;;
60336;SDS011;46978;50.288;28.624;2024-02-26T00:52:46;10.32;;;5.28;;
60336;SDS011;46978;50.288;28.624;2024-02-26T00:53:47;13.26;;;6.16;;
60336;SDS011;46978;50.288;28.624;2024-02-26T00:54:49;11.10;;;5.20;;
60336;SDS011;46978;50.288;28.624;2024-02-26T00:55:51;13.44;;;6.01;;
60336;SDS011;46978;50.288;28.624;2024-02-26T00:56:52;11.86;;;5.98;;
60336;SDS011;46978;50.288;28.624;2024-02-26T00:57:54;10.23;;;5.54;;
60336;SDS011;46978;50.288;28.624;2024-02-26T00:58:55;14.31;;;6.84;;
60336;SDS011;46978;50.288;28.624;2024-02-26T00:59:57;14.87;;;6.67;;
60336;SDS011;46978;50.288;28.624;2024-02-26T01:00:59;11.62;;;5.98;;
60336;SDS011;46978;50.288;28.624;2024-02-26T01:02:00;15.80;;;7.88;;
60336;SDS011;46978;50.288;28.624;2024-02-26T01:03:02;10.52;;;5.56;;
60336;SDS011;46978;50.288;28.624;2024-02-26T01:04:04;13.36;;;6.54;;
60336;SDS011;46978;50.288;28.624;2024-02-26T01:05:06;11.39;;;5.56;;
60336;SDS011;46978;50.288;28.624;2024-02-26T01:06:08;12.04;;;5.96;;
60336;SDS011;46978;50.288;28.624;2024-02-26T01:07:10;16.90;;;8.18;;
60336;SDS011;46978;50.288;28.624;2024-02-26T01:08:11;11.93;;;6.38;;
60336;SDS011;46978;50.288;28.624;2024-02-26T01:09:13;11.41;;;6.31;;
60336;SDS011;46978;50.288;28.624;2024-02-26T01:10:14;13.00;;;6.82;;
60336;SDS011;46978;50.288;28.624;2024-02-26T01:11:16;15.67;;;6.65;;
60336;SDS011;46978;50.288;28.624;2024-02-26T01:12:17;12.40;;;6.18;;
60336;SDS011;46978;50.288;28.624;2024-02-26T01:13:19;18.06;;;7.34;;
60336;SDS011;46978;50.288;28.624;2024-02-26T01:14:20;12.81;;;6.85;;
60336;SDS011;46978;50.288;28.624;2024-02-26T01:15:22;12.20;;;5.78;;
60336;SDS011;46978;50.288;28.624;2024-02-26T01:16:24;13.86;;;7.03;;
60336;SDS011;46978;50.288;28.624;2024-02-26T01:17:25;15.34;;;7.92;;
60336;SDS011;46978;50.288;28.624;2024-02-26T01:18:27;11.21;;;6.22;;
60336;SDS011;46978;50.288;28.624;2024-02-26T01:19:28;12.06;;;5.84;;
60336;SDS011;46978;50.288;28.624;2024-02-26T01:20:30;13.21;;;7.20;;
60336;SDS011;46978;50.288;28.624;2024-02-26T01:21:32;15.30;;;7.30;;
60336;SDS011;46978;50.288;28.624;2024-02-26T01:22:33;14.69;;;7.09;;
60336;SDS011;46978;50.288;28.624;2024-02-26T01:23:35;13.06;;;6.20;;
60336;SDS011;46978;50.288;28.624;2024-02-26T01:24:36;16.05;;;7.12;;
60336;SDS011;46978;50.288;28.624;2024-02-26T01:25:38;12.97;;;6.26;;
60336;SDS011;46978;50.288;28.624;2024-02-26T01:26:39;12.01;;;6.13;;
60336;SDS011;46978;50.288;28.624;2024-02-26T01:27:41;17.06;;;7.09;;
60336;SDS011;46978;50.288;28.624;2024-02-26T01:30:05;19.19;;;7.74;;
60336;SDS011;46978;50.288;28.624;2024-02-26T01:31:09;16.81;;;7.77;;
60336;SDS011;46978;50.288;28.624;2024-02-26T01:32:10;12.18;;;6.42;;
60336;SDS011;46978;50.288;28.624;2024-02-26T01:33:12;13.68;;;6.44;;
60336;SDS011;46978;50.288;28.624;2024-02-26T01:34:13;17.75;;;6.29;;
60336;SDS011;46978;50.288;28.624;2024-02-26T01:35:15;12.84;;;5.46;;
60336;SDS011;46978;50.288;28.624;2024-02-26T01:36:17;9.85;;;4.79;;
60336;SDS011;46978;50.288;28.624;2024-02-26T01:37:19;10.89;;;5.43;;
60336;SDS011;46978;50.288;28.624;2024-02-26T01:38:20;12.61;;;5.89;;
60336;SDS011;46978;50.288;28.624;2024-02-26T01:39:22;11.10;;;5.91;;
60336;SDS011;46978;50.288;28.624;2024-02-26T01:40:26;10.68;;;5.13;;
60336;SDS011;46978;50.288;28.624;2024-02-26T01:41:30;12.12;;;5.58;;
60336;SDS011;46978;50.288;28.624;2024-02-26T01:42:32;11.09;;;5.58;;
60336;SDS011;46978;50.288;28.624;2024-02-26T01:43:33;12.77;;;6.12;;
60336;SDS011;46978;50.288;28.624;2024-02-26T01:44:35;10.21;;;5.56;;
60336;SDS011;46978;50.288;28.624;2024-02-26T01:45:36;13.19;;;6.01;;
60336;SDS011;46978;50.288;28.624;2024-02-26T01:46:38;13.14;;;6.41;;
60336;SDS011;46978;50.288;28.624;2024-02-26T01:47:40;9.07;;;5.18;;
60336;SDS011;46978;50.288;28.624;2024-02-26T01:48:42;10.63;;;5.65;;
60336;SDS011;46978;50.288;28.624;2024-02-26T01:49:45;9.52;;;5.24;;
60336;SDS011;46978;50.288;28.624;2024-02-26T01:50:47;10.25;;;5.63;;
60336;SDS011;46978;50.288;28.624;2024-02-26T01:51:48;11.15;;;5.64;;
60336;SDS011;46978;50.288;28.624;2024-02-26T01:52:50;12.09;;;5.85;;
60336;SDS011;46978;50.288;28.624;2024-02-26T01:53:53;11.17;;;6.31;;
60336;SDS011;46978;50.288;28.624;2024-02-26T01:54:54;12.76;;;6.27;;
60336;SDS011;46978;50.288;28.624;2024-02-26T01:55:56;12.33;;;5.97;;
60336;SDS011;46978;50.288;28.624;2024-02-26T01:56:58;12.37;;;5.24;;
60336;SDS011;46978;50.288;28.624;2024-02-26T01:58:00;8.41;;;4.89;;
60336;SDS011;46978;50.288;28.624;2024-02-26T01:59:02;9.73;;;5.02;;
60336;SDS011;46978;50.288;28.624;2024-02-26T02:00:07;9.02;;;5.38;;
60336;SDS011;46978;50.288;28.624;2024-02-26T02:01:09;10.60;;;5.17;;
60336;SDS011;46978;50.288;28.624;2024-02-26T02:02:11;9.86;;;5.20;;
60336;SDS011;46978;50.288;28.624;2024-02-26T02:03:13;10.98;;;6.52;;
60336;SDS011;46978;50.288;28.624;2024-02-26T02:04:15;11.11;;;5.01;;
60336;SDS011;46978;50.288;28.624;2024-02-26T02:05:17;12.63;;;5.31;;
60336;SDS011;46978;50.288;28.624;2024-02-26T02:06:21;10.48;;;5.25;;
60336;SDS011;46978;50.288;28.624;2024-02-26T02:07:23;9.23;;;4.85;;
60336;SDS011;46978;50.288;28.624;2024-02-26T02:08:25;10.60;;;5.46;;
60336;SDS011;46978;50.288;28.624;2024-02-26T02:09:28;13.17;;;5.18;;
60336;SDS011;46978;50.288;28.624;2024-02-26T02:10:30;9.85;;;5.26;;
60336;SDS011;46978;50.288;28.624;2024-02-26T02:11:34;10.82;;;5.24;;
60336;SDS011;46978;50.288;28.624;2024-02-26T02:12:36;8.28;;;4.92;;
60336;SDS011;46978;50.288;28.624;2024-02-26T02:13:38;7.78;;;4.84;;
60336;SDS011;46978;50.288;28.624;2024-02-26T02:14:39;12.15;;;5.74;;
60336;SDS011;46978;50.288;28.624;2024-02-26T02:15:41;12.31;;;5.99;;
60336;SDS011;46978;50.288;28.624;2024-02-26T02:16:42;10.37;;;5.24;;
60336;SDS011;46978;50.288;28.624;2024-02-26T02:17:44;9.34;;;5.44;;
60336;SDS011;46978;50.288;28.624;2024-02-26T02:18:46;10.69;;;5.55;;
60336;SDS011;46978;50.288;28.624;2024-02-26T02:19:48;10.03;;;5.30;;
60336;SDS011;46978;50.288;28.624;2024-02-26T02:20:50;9.11;;;4.47;;
60336;SDS011;46978;50.288;28.624;2024-02-26T02:21:51;11.43;;;6.05;;
60336;SDS011;46978;50.288;28.624;2024-02-26T02:22:53;11.92;;;5.70;;
60336;SDS011;46978;50.288;28.624;2024-02-26T02:23:54;9.79;;;4.81;;
60336;SDS011;46978;50.288;28.624;2024-02-26T02:24:56;12.25;;;6.73;;
60336;SDS011;46978;50.288;28.624;2024-02-26T02:25:57;9.89;;;4.86;;
60336;SDS011;46978;50.288;28.624;2024-02-26T02:27:00;9.31;;;4.89;;
60336;SDS011;46978;50.288;28.624;2024-02-26T02:28:02;9.60;;;4.75;;
60336;SDS011;46978;50.288;28.624;2024-02-26T02:29:04;9.54;;;5.27;;
60336;SDS011;46978;50.288;28.624;2024-02-26T02:30:08;10.19;;;4.92;;
60336;SDS011;46978;50.288;28.624;2024-02-26T02:31:11;10.78;;;5.13;;
60336;SDS011;46978;50.288;28.624;2024-02-26T02:32:14;11.51;;;5.27;;
60336;SDS011;46978;50.288;28.624;2024-02-26T02:33:17;12.88;;;5.61;;
60336;SDS011;46978;50.288;28.624;2024-02-26T02:34:18;14.71;;;6.87;;
60336;SDS011;46978;50.288;28.624;2024-02-26T02:35:20;10.45;;;4.79;;
60336;SDS011;46978;50.288;28.624;2024-02-26T02:36:22;10.39;;;5.24;;
60336;SDS011;46978;50.288;28.624;2024-02-26T02:37:24;8.74;;;4.23;;
60336;SDS011;46978;50.288;28.624;2024-02-26T02:38:25;11.51;;;6.21;;
60336;SDS011;46978;50.288;28.624;2024-02-26T02:39:27;11.36;;;5.18;;
60336;SDS011;46978;50.288;28.624;2024-02-26T02:40:28;10.77;;;4.96;;
60336;SDS011;46978;50.288;28.624;2024-02-26T02:41:30;14.64;;;6.15;;
60336;SDS011;46978;50.288;28.624;2024-02-26T02:42:31;8.66;;;4.48;;
60336;SDS011;46978;50.288;28.624;2024-02-26T02:43:33;13.40;;;5.98;;
60336;SDS011;46978;50.288;28.624;2024-02-26T02:44:35;15.04;;;7.61;;
60336;SDS011;46978;50.288;28.624;2024-02-26T02:45:36;13.20;;;5.26;;
60336;SDS011;46978;50.288;28.624;2024-02-26T02:46:38;12.07;;;5.22;;
60336;SDS011;46978;50.288;28.624;2024-02-26T02:47:40;8.53;;;4.98;;
60336;SDS011;46978;50.288;28.624;2024-02-26T02:48:41;11.78;;;5.89;;
60336;SDS011;46978;50.288;28.624;2024-02-26T02:49:43;12.09;;;6.08;;
60336;SDS011;46978;50.288;28.624;2024-02-26T02:50:45;14.31;;;6.94;;
60336;SDS011;46978;50.288;28.624;2024-02-26T02:51:47;12.61;;;5.93;;
60336;SDS011;46978;50.288;28.624;2024-02-26T02:52:48;10.88;;;5.59;;
60336;SDS011;46978;50.288;28.624;2024-02-26T02:53:50;13.20;;;5.74;;
60336;SDS011;46978;50.288;28.624;2024-02-26T02:54:51;11.34;;;6.06;;
60336;SDS011;46978;50.288;28.624;2024-02-26T02:55:53;11.88;;;5.74;;
60336;SDS011;46978;50.288;28.624;2024-02-26T02:56:54;12.41;;;6.16;;
60336;SDS011;46978;50.288;28.624;2024-02-26T02:57:56;12.85;;;5.91;;
60336;SDS011;46978;50.288;28.624;2024-02-26T02:58:57;11.47;;;6.83;;
60336;SDS011;46978;50.288;28.624;2024-02-26T02:59:59;9.74;;;5.15;;
60336;SDS011;46978;50.288;28.624;2024-02-26T03:01:01;11.53;;;5.52;;
60336;SDS011;46978;50.288;28.624;2024-02-26T03:02:02;11.54;;;6.05;;
60336;SDS011;46978;50.288;28.624;2024-02-26T03:03:04;9.84;;;5.61;;
60336;SDS011;46978;50.288;28.624;2024-02-26T03:04:06;11.09;;;5.29;;
60336;SDS011;46978;50.288;28.624;2024-02-26T03:05:07;11.01;;;5.76;;
60336;SDS011;46978;50.288;28.624;2024-02-26T03:06:10;9.29;;;5.19;;
60336;SDS011;46978;50.288;28.624;2024-02-26T03:07:11;12.99;;;6.33;;
60336;SDS011;46978;50.288;28.624;2024-02-26T03:08:13;16.84;;;6.98;;
60336;SDS011;46978;50.288;28.624;2024-02-26T03:09:14;10.78;;;5.37;;
60336;SDS011;46978;50.288;28.624;2024-02-26T03:10:16;10.55;;;4.81;;
60336;SDS011;46978;50.288;28.624;2024-02-26T03:11:18;10.49;;;4.79;;
60336;SDS011;46978;50.288;28.624;2024-02-26T03:12:20;12.59;;;6.04;;
60336;SDS011;46978;50.288;28.624;2024-02-26T03:13:21;14.19;;;5.78;;
60336;SDS011;46978;50.288;28.624;2024-02-26T03:14:23;13.29;;;7.11;;
60336;SDS011;46978;50.288;28.624;2024-02-26T03:15:25;14.65;;;5.65;;
60336;SDS011;46978;50.288;28.624;2024-02-26T03:16:26;10.26;;;5.08;;
60336;SDS011;46978;50.288;28.624;2024-02-26T03:17:31;10.38;;;5.26;;
60336;SDS011;46978;50.288;28.624;2024-02-26T03:18:32;10.82;;;5.20;;
60336;SDS011;46978;50.288;28.624;2024-02-26T03:19:34;9.39;;;5.29;;
60336;SDS011;46978;50.288;28.624;2024-02-26T03:20:36;10.04;;;5.26;;
60336;SDS011;46978;50.288;28.624;2024-02-26T03:21:37;10.36;;;5.84;;
60336;SDS011;46978;50.288;28.624;2024-02-26T03:22:39;9.50;;;5.14;;
60336;SDS011;46978;50.288;28.624;2024-02-26T03:23:41;9.07;;;4.79;;
60336;SDS011;46978;50.288;28.624;2024-02-26T03:24:42;11.34;;;4.81;;
60336;SDS011;46978;50.288;28.624;2024-02-26T03:25:44;9.54;;;5.11;;
60336;SDS011;46978;50.288;28.624;2024-02-26T03:26:46;10.88;;;5.06;;
60336;SDS011;46978;50.288;28.624;2024-02-26T03:27:47;10.93;;;5.41;;
60336;SDS011;46978;50.288;28.624;2024-02-26T03:28:49;9.74;;;5.04;;
60336;SDS011;46978;50.288;28.624;2024-02-26T03:29:50;9.56;;;5.27;;
60336;SDS011;46978;50.288;28.624;2024-02-26T03:30:52;8.65;;;4.52;;
60336;SDS011;46978;50.288;28.624;2024-02-26T03:31:54;10.11;;;4.48;;
60336;SDS011;46978;50.288;28.624;2024-02-26T03:32:55;7.78;;;4.14;;
60336;SDS011;46978;50.288;28.624;2024-02-26T03:33:57;7.89;;;4.19;;
60336;SDS011;46978;50.288;28.624;2024-02-26T03:34:58;10.68;;;4.34;;
60336;SDS011;46978;50.288;28.624;2024-02-26T03:36:00;8.79;;;4.21;;
60336;SDS011;46978;50.288;28.624;2024-02-26T03:37:01;8.19;;;4.25;;
60336;SDS011;46978;50.288;28.624;2024-02-26T03:38:03;7.99;;;4.18;;
60336;SDS011;46978;50.288;28.624;2024-02-26T03:39:05;9.49;;;4.55;;
60336;SDS011;46978;50.288;28.624;2024-02-26T03:40:07;10.04;;;5.23;;
60336;SDS011;46978;50.288;28.624;2024-02-26T03:41:09;12.65;;;5.84;;
60336;SDS011;46978;50.288;28.624;2024-02-26T03:42:11;13.45;;;6.24;;
60336;SDS011;46978;50.288;28.624;2024-02-26T03:43:12;15.66;;;6.73;;
60336;SDS011;46978;50.288;28.624;2024-02-26T03:44:14;10.64;;;5.53;;
60336;SDS011;46978;50.288;28.624;2024-02-26T03:45:16;9.39;;;4.78;;
60336;SDS011;46978;50.288;28.624;2024-02-26T03:46:18;12.97;;;6.25;;
60336;SDS011;46978;50.288;28.624;2024-02-26T03:47:19;12.54;;;6.24;;
60336;SDS011;46978;50.288;28.624;2024-02-26T03:48:21;13.94;;;6.30;;
60336;SDS011;46978;50.288;28.624;2024-02-26T03:49:22;18.56;;;9.62;;
60336;SDS011;46978;50.288;28.624;2024-02-26T03:50:24;10.48;;;6.39;;
60336;SDS011;46978;50.288;28.624;2024-02-26T03:51:25;23.39;;;12.44;;
60336;SDS011;46978;50.288;28.624;2024-02-26T03:52:27;10.26;;;6.43;;
60336;SDS011;46978;50.288;28.624;2024-02-26T03:53:29;14.05;;;6.34;;
60336;SDS011;46978;50.288;28.624;2024-02-26T03:54:30;12.00;;;6.41;;
60336;SDS011;46978;50.288;28.624;2024-02-26T03:55:33;14.62;;;8.21;;
60336;SDS011;46978;50.288;28.624;2024-02-26T03:56:35;14.42;;;8.51;;
60336;SDS011;46978;50.288;28.624;2024-02-26T03:57:36;12.19;;;6.16;;
60336;SDS011;46978;50.288;28.624;2024-02-26T03:58:38;12.86;;;6.59;;
60336;SDS011;46978;50.288;28.624;2024-02-26T03:59:39;14.59;;;9.18;;
60336;SDS011;46978;50.288;28.624;2024-02-26T04:00:42;12.01;;;6.99;;
60336;SDS011;46978;50.288;28.624;2024-02-26T04:01:46;14.81;;;8.40;;
60336;SDS011;46978;50.288;28.624;2024-02-26T04:02:48;13.78;;;7.88;;
60336;SDS011;46978;50.288;28.624;2024-02-26T04:03:50;10.91;;;6.47;;
60336;SDS011;46978;50.288;28.624;2024-02-26T04:04:51;13.85;;;6.31;;
60336;SDS011;46978;50.288;28.624;2024-02-26T04:05:53;12.60;;;6.61;;
60336;SDS011;46978;50.288;28.624;2024-02-26T04:06:55;13.61;;;6.75;;
60336;SDS011;46978;50.288;28.624;2024-02-26T04:07:56;10.57;;;6.30;;
60336;SDS011;46978;50.288;28.624;2024-02-26T04:08:58;15.61;;;6.00;;
60336;SDS011;46978;50.288;28.624;2024-02-26T04:09:59;12.89;;;6.54;;
60336;SDS011;46978;50.288;28.624;2024-02-26T04:11:01;12.74;;;6.14;;
60336;SDS011;46978;50.288;28.624;2024-02-26T04:12:02;10.17;;;5.49;;
60336;SDS011;46978;50.288;28.624;2024-02-26T04:13:05;9.71;;;5.55;;
60336;SDS011;46978;50.288;28.624;2024-02-26T04:14:07;12.44;;;6.09;;
60336;SDS011;46978;50.288;28.624;2024-02-26T04:15:09;9.69;;;5.57;;
60336;SDS011;46978;50.288;28.624;2024-02-26T04:16:11;11.72;;;5.45;;
60336;SDS011;46978;50.288;28.624;2024-02-26T04:17:13;12.51;;;6.55;;
60336;SDS011;46978;50.288;28.624;2024-02-26T04:18:14;12.08;;;5.55;;
60336;SDS011;46978;50.288;28.624;2024-02-26T04:19:16;12.74;;;6.34;;
60336;SDS011;46978;50.288;28.624;2024-02-26T04:20:18;12.47;;;6.77;;
60336;SDS011;46978;50.288;28.624;2024-02-26T04:21:20;10.46;;;6.13;;
60336;SDS011;46978;50.288;28.624;2024-02-26T04:22:21;12.53;;;6.89;;
60336;SDS011;46978;50.288;28.624;2024-02-26T04:23:23;12.90;;;6.02;;
60336;SDS011;46978;50.288;28.624;2024-02-26T04:24:25;13.28;;;6.37;;
60336;SDS011;46978;50.288;28.624;2024-02-26T04:25:27;12.82;;;6.99;;
60336;SDS011;46978;50.288;28.624;2024-02-26T04:26:29;15.00;;;6.66;;
60336;SDS011;46978;50.288;28.624;2024-02-26T04:27:31;15.93;;;8.18;;
60336;SDS011;46978;50.288;28.624;2024-02-26T04:28:33;17.08;;;10.27;;
60336;SDS011;46978;50.288;28.624;2024-02-26T04:29:34;17.24;;;9.38;;
60336;SDS011;46978;50.288;28.624;2024-02-26T04:30:36;15.03;;;7.90;;
60336;SDS011;46978;50.288;28.624;2024-02-26T04:31:38;17.26;;;8.41;;
60336;SDS011;46978;50.288;28.624;2024-02-26T04:32:39;12.18;;;6.89;;
60336;SDS011;46978;50.288;28.624;2024-02-26T04:33:41;15.50;;;7.71;;
60336;SDS011;46978;50.288;28.624;2024-02-26T04:34:42;11.41;;;5.19;;
60336;SDS011;46978;50.288;28.624;2024-02-26T04:35:44;12.69;;;5.24;;
60336;SDS011;46978;50.288;28.624;2024-02-26T04:36:46;11.93;;;6.17;;
60336;SDS011;46978;50.288;28.624;2024-02-26T04:37:47;11.02;;;6.17;;
60336;SDS011;46978;50.288;28.624;2024-02-26T04:38:49;13.19;;;5.72;;
60336;SDS011;46978;50.288;28.624;2024-02-26T04:39:50;12.80;;;6.26;;
60336;SDS011;46978;50.288;28.624;2024-02-26T04:40:52;13.26;;;6.02;;
60336;SDS011;46978;50.288;28.624;2024-02-26T04:41:53;11.57;;;5.53;;
60336;SDS011;46978;50.288;28.624;2024-02-26T04:42:55;9.79;;;5.14;;
60336;SDS011;46978;50.288;28.624;2024-02-26T04:43:57;11.31;;;5.59;;
60336;SDS011;46978;50.288;28.624;2024-02-26T04:44:58;11.39;;;5.60;;
60336;SDS011;46978;50.288;28.624;2024-02-26T04:45:59;10.99;;;5.34;;
60336;SDS011;46978;50.288;28.624;2024-02-26T04:47:01;11.19;;;6.16;;
60336;SDS011;46978;50.288;28.624;2024-02-26T04:48:03;11.64;;;5.37;;
60336;SDS011;46978;50.288;28.624;2024-02-26T04:49:04;8.98;;;5.41;;
60336;SDS011;46978;50.288;28.624;2024-02-26T04:50:06;11.09;;;4.71;;
60336;SDS011;46978;50.288;28.624;2024-02-26T04:51:08;10.35;;;5.41;;
60336;SDS011;46978;50.288;28.624;2024-02-26T04:52:11;11.34;;;5.68;;
60336;SDS011;46978;50.288;28.624;2024-02-26T04:53:12;12.11;;;5.45;;
60336;SDS011;46978;50.288;28.624;2024-02-26T04:54:14;10.09;;;5.48;;
60336;SDS011;46978;50.288;28.624;2024-02-26T04:55:16;11.20;;;5.47;;
60336;SDS011;46978;50.288;28.624;2024-02-26T04:56:18;14.29;;;6.17;;
60336;SDS011;46978;50.288;28.624;2024-02-26T04:57:20;11.99;;;5.73;;
60336;SDS011;46978;50.288;28.624;2024-02-26T04:58:22;12.89;;;5.72;;
60336;SDS011;46978;50.288;28.624;2024-02-26T04:59:24;12.18;;;6.01;;
60336;SDS011;46978;50.288;28.624;2024-02-26T05:00:25;9.56;;;5.33;;
60336;SDS011;46978;50.288;28.624;2024-02-26T05:01:27;10.69;;;5.69;;
60336;SDS011;46978;50.288;28.624;2024-02-26T05:02:28;12.93;;;6.07;;
60336;SDS011;46978;50.288;28.624;2024-02-26T05:03:30;9.94;;;5.72;;
60336;SDS011;46978;50.288;28.624;2024-02-26T05:04:31;10.52;;;5.42;;
60336;SDS011;46978;50.288;28.624;2024-02-26T05:05:33;14.44;;;5.74;;
60336;SDS011;46978;50.288;28.624;2024-02-26T05:06:36;10.61;;;5.75;;
60336;SDS011;46978;50.288;28.624;2024-02-26T05:07:41;14.38;;;6.20;;
60336;SDS011;46978;50.288;28.624;2024-02-26T05:08:43;13.36;;;5.99;;
60336;SDS011;46978;50.288;28.624;2024-02-26T05:09:44;10.86;;;5.65;;
60336;SDS011;46978;50.288;28.624;2024-02-26T05:10:46;12.25;;;5.37;;
60336;SDS011;46978;50.288;28.624;2024-02-26T05:11:48;12.77;;;6.40;;
60336;SDS011;46978;50.288;28.624;2024-02-26T05:12:50;12.36;;;5.99;;
60336;SDS011;46978;50.288;28.624;2024-02-26T05:13:51;12.88;;;5.86;;
60336;SDS011;46978;50.288;28.624;2024-02-26T05:14:52;11.08;;;5.79;;
60336;SDS011;46978;50.288;28.624;2024-02-26T05:15:54;11.38;;;6.16;;
60336;SDS011;46978;50.288;28.624;2024-02-26T05:16:56;13.67;;;5.27;;
60336;SDS011;46978;50.288;28.624;2024-02-26T05:17:57;10.88;;;5.90;;
60336;SDS011;46978;50.288;28.624;2024-02-26T05:18:59;12.91;;;6.34;;
60336;SDS011;46978;50.288;28.624;2024-02-26T05:20:00;13.98;;;6.66;;
60336;SDS011;46978;50.288;28.624;2024-02-26T05:21:02;13.20;;;6.36;;
60336;SDS011;46978;50.288;28.624;2024-02-26T05:22:04;12.36;;;6.04;;
60336;SDS011;46978;50.288;28.624;2024-02-26T05:23:05;11.04;;;5.70;;
60336;SDS011;46978;50.288;28.624;2024-02-26T05:24:07;11.68;;;6.38;;
60336;SDS011;46978;50.288;28.624;2024-02-26T05:25:09;12.89;;;6.61;;
60336;SDS011;46978;50.288;28.624;2024-02-26T05:26:11;10.22;;;5.34;;
60336;SDS011;46978;50.288;28.624;2024-02-26T05:27:12;13.92;;;6.78;;
60336;SDS011;46978;50.288;28.624;2024-02-26T05:28:14;13.73;;;6.31;;
60336;SDS011;46978;50.288;28.624;2024-02-26T05:29:15;12.71;;;6.06;;
60336;SDS011;46978;50.288;28.624;2024-02-26T05:30:17;14.44;;;6.87;;
60336;SDS011;46978;50.288;28.624;2024-02-26T05:31:19;15.10;;;6.95;;
60336;SDS011;46978;50.288;28.624;2024-02-26T05:32:20;13.60;;;6.44;;
60336;SDS011;46978;50.288;28.624;2024-02-26T05:33:22;11.77;;;6.56;;
60336;SDS011;46978;50.288;28.624;2024-02-26T05:34:23;20.89;;;10.31;;
60336;SDS011;46978;50.288;28.624;2024-02-26T05:35:25;36.19;;;18.94;;
60336;SDS011;46978;50.288;28.624;2024-02-26T05:36:27;30.47;;;17.63;;
60336;SDS011;46978;50.288;28.624;2024-02-26T05:37:28;24.94;;;12.79;;
60336;SDS011;46978;50.288;28.624;2024-02-26T05:38:31;14.90;;;8.45;;
60336;SDS011;46978;50.288;28.624;2024-02-26T05:39:32;12.83;;;6.51;;
60336;SDS011;46978;50.288;28.624;2024-02-26T05:40:34;12.89;;;5.89;;
60336;SDS011;46978;50.288;28.624;2024-02-26T05:41:36;15.85;;;7.88;;
60336;SDS011;46978;50.288;28.624;2024-02-26T05:42:37;18.56;;;9.22;;
60336;SDS011;46978;50.288;28.624;2024-02-26T05:43:39;20.13;;;9.17;;
60336;SDS011;46978;50.288;28.624;2024-02-26T05:44:40;23.94;;;10.04;;
60336;SDS011;46978;50.288;28.624;2024-02-26T05:45:42;19.07;;;8.71;;
60336;SDS011;46978;50.288;28.624;2024-02-26T05:46:43;20.12;;;9.15;;
60336;SDS011;46978;50.288;28.624;2024-02-26T05:47:45;18.81;;;8.44;;
60336;SDS011;46978;50.288;28.624;2024-02-26T05:48:50;17.09;;;8.51;;
60336;SDS011;46978;50.288;28.624;2024-02-26T05:49:53;14.07;;;7.33;;
60336;SDS011;46978;50.288;28.624;2024-02-26T05:50:54;36.15;;;15.28;;
60336;SDS011;46978;50.288;28.624;2024-02-26T05:51:56;30.02;;;13.66;;
60336;SDS011;46978;50.288;28.624;2024-02-26T05:52:57;24.34;;;10.90;;
60336;SDS011;46978;50.288;28.624;2024-02-26T05:53:59;22.16;;;9.86;;
60336;SDS011;46978;50.288;28.624;2024-02-26T05:55:00;17.78;;;8.98;;
60336;SDS011;46978;50.288;28.624;2024-02-26T05:56:02;16.45;;;7.31;;
60336;SDS011;46978;50.288;28.624;2024-02-26T05:57:04;18.82;;;9.10;;
60336;SDS011;46978;50.288;28.624;2024-02-26T05:58:06;27.89;;;11.86;;
60336;SDS011;46978;50.288;28.624;2024-02-26T05:59:07;18.49;;;8.70;;
60336;SDS011;46978;50.288;28.624;2024-02-26T06:00:10;20.93;;;9.51;;
60336;SDS011;46978;50.288;28.624;2024-02-26T06:01:12;21.80;;;10.15;;
60336;SDS011;46978;50.288;28.624;2024-02-26T06:02:14;16.92;;;8.43;;
60336;SDS011;46978;50.288;28.624;2024-02-26T06:03:15;18.96;;;8.56;;